createdAt,value
2023-04-15T00:01:28.563Z,9.35
2023-04-15T00:06:31.423Z,9.27
2023-04-15T00:11:36.351Z,7.47
2023-04-15T00:16:39.353Z,8.05
2023-04-15T00:21:42.277Z,7.93
2023-04-15T00:27:04.433Z,8.20
2023-04-15T00:32:08.053Z,7.40
2023-04-15T00:37:10.920Z,8.43
2023-04-15T00:42:32.400Z,8.38
2023-04-15T00:47:36.660Z,8.35
2023-04-15T00:52:40.040Z,7.57
2023-04-15T01:02:48.876Z,8.63
2023-04-15T01:07:51.860Z,8.43
2023-04-15T01:12:56.905Z,7.85
2023-04-15T01:18:03.244Z,8.35
2023-04-15T01:28:09.863Z,7.65
2023-04-15T01:33:13.333Z,8.05
2023-04-15T01:38:16.367Z,8.02
2023-04-15T01:43:39.432Z,8.40
2023-04-15T01:48:42.138Z,8.10
2023-04-15T01:53:45.063Z,7.90
2023-04-15T01:58:47.873Z,7.25
2023-04-15T02:03:50.796Z,8.68
2023-04-15T02:08:53.635Z,7.70
2023-04-15T02:13:56.614Z,9.82
2023-04-15T02:19:01.691Z,8.18
2023-04-15T02:24:06.783Z,8.38
2023-04-15T02:29:09.420Z,9.27
2023-04-15T02:34:14.498Z,9.55
2023-04-15T02:39:20.902Z,11.05
2023-04-15T02:44:25.015Z,11.13
2023-04-15T02:49:32.419Z,10.80
2023-04-15T02:54:36.422Z,10.88
2023-04-15T02:59:39.519Z,10.25
2023-04-15T03:04:42.383Z,10.88
2023-04-15T03:09:50.280Z,10.93
2023-04-15T03:14:53.231Z,8.93
2023-04-15T03:20:05.861Z,11.32
2023-04-15T03:25:09.338Z,12.20
2023-04-15T03:30:13.370Z,12.95
2023-04-15T03:35:35.513Z,12.10
2023-04-15T03:40:40.274Z,13.65
2023-04-15T03:50:46.637Z,11.90
2023-04-15T03:55:49.225Z,11.50
2023-04-15T04:00:52.246Z,12.43
2023-04-15T04:05:59.945Z,14.68
2023-04-15T04:11:02.711Z,11.68
2023-04-15T04:16:05.775Z,13.00
2023-04-15T04:21:08.602Z,12.75
2023-04-15T04:26:29.759Z,12.77
2023-04-15T04:31:32.312Z,13.82
2023-04-15T04:36:35.787Z,13.43
2023-04-15T04:41:38.665Z,13.82
2023-04-15T04:46:41.239Z,13.68
2023-04-15T04:51:44.273Z,12.38
2023-04-15T04:56:47.144Z,14.63
2023-04-15T05:01:52.204Z,16.83
2023-04-15T05:06:54.809Z,16.30
2023-04-15T05:11:57.474Z,14.73
2023-04-15T05:17:00.045Z,17.10
2023-04-15T05:22:02.937Z,19.33
2023-04-15T05:27:05.551Z,19.75
2023-04-15T05:32:08.378Z,19.80
2023-04-15T05:37:11.031Z,22.50
2023-04-15T05:42:13.832Z,20.25
2023-04-15T05:47:16.696Z,19.15
2023-04-15T05:52:19.704Z,16.85
2023-04-15T05:57:22.295Z,17.05
2023-04-15T06:02:24.997Z,16.95
2023-04-15T06:07:27.592Z,16.40
2023-04-15T06:12:31.372Z,17.23
2023-04-15T06:17:33.900Z,15.97
2023-04-15T06:22:38.688Z,15.32
2023-04-15T06:27:41.978Z,14.65
2023-04-15T06:32:44.660Z,14.57
2023-04-15T06:37:47.697Z,16.83
2023-04-15T06:42:51.260Z,14.52
2023-04-15T06:47:54.099Z,14.07
2023-04-15T06:52:57.402Z,15.88
2023-04-15T06:58:18.967Z,15.15
2023-04-15T07:03:40.032Z,15.63
2023-04-15T07:08:43.101Z,13.43
2023-04-15T07:13:46.073Z,11.43
2023-04-15T07:18:48.696Z,10.68
2023-04-15T07:23:51.654Z,10.40
2023-04-15T07:28:54.574Z,10.73
2023-04-15T07:34:05.291Z,12.15
2023-04-15T07:39:08.581Z,11.07
2023-04-15T07:44:11.605Z,10.25
2023-04-15T07:49:14.544Z,11.15
2023-04-15T07:54:21.334Z,12.32
2023-04-15T07:59:27.780Z,11.80
2023-04-15T08:04:31.336Z,11.30
2023-04-15T08:09:35.702Z,10.98
2023-04-15T08:14:39.755Z,10.20
2023-04-15T08:19:42.598Z,10.02
2023-04-15T08:24:46.866Z,9.68
2023-04-15T08:29:49.552Z,9.77
2023-04-15T08:34:53.421Z,8.07
2023-04-15T08:39:57.369Z,7.88
2023-04-15T08:45:01.718Z,7.47
2023-04-15T08:50:04.751Z,6.32
2023-04-15T08:55:08.365Z,7.13
2023-04-15T09:00:14.109Z,6.13
2023-04-15T09:05:17.537Z,4.97
2023-04-15T09:10:20.071Z,4.30
2023-04-15T09:15:25.268Z,4.22
2023-04-15T09:20:28.046Z,5.50
2023-04-15T09:25:33.515Z,5.38
2023-04-15T09:30:39.134Z,4.65
2023-04-15T09:35:42.375Z,4.97
2023-04-15T09:40:46.744Z,5.10
2023-04-15T09:45:54.654Z,5.20
2023-04-15T09:51:07.408Z,6.10
2023-04-15T09:56:11.002Z,5.65
2023-04-15T10:01:13.741Z,4.60
2023-04-15T10:06:17.448Z,4.75
2023-04-15T10:11:20.642Z,5.35
2023-04-15T10:16:28.063Z,5.20
2023-04-15T10:21:30.888Z,4.38
2023-04-15T10:26:33.567Z,5.40
2023-04-15T10:31:40.881Z,5.13
2023-04-15T10:36:43.626Z,5.45
2023-04-15T10:41:46.671Z,5.30
2023-04-15T10:46:51.899Z,5.30
2023-04-15T10:51:58.584Z,4.88
2023-04-15T10:57:04.888Z,4.00
2023-04-15T11:02:08.322Z,3.80
2023-04-15T11:07:11.067Z,4.50
2023-04-15T11:12:13.910Z,4.63
2023-04-15T11:17:31.635Z,3.92
2023-04-15T11:22:34.193Z,4.07
2023-04-15T11:27:37.848Z,3.80
2023-04-15T11:32:42.670Z,3.45
2023-04-15T11:37:46.313Z,3.42
2023-04-15T11:43:04.642Z,3.17
2023-04-15T11:48:11.442Z,2.97
2023-04-15T11:53:14.725Z,3.85
2023-04-15T11:58:23.773Z,3.73
2023-04-15T12:03:50.347Z,3.40
2023-04-15T12:08:56.167Z,3.38
2023-04-15T12:14:06.161Z,2.92
2023-04-15T12:19:24.380Z,3.20
2023-04-15T12:24:27.518Z,3.03
2023-04-15T12:29:32.694Z,2.40
2023-04-15T12:34:40.784Z,2.80
2023-04-15T12:39:46.016Z,2.50
2023-04-15T12:44:48.746Z,2.40
2023-04-15T12:49:52.863Z,1.87
2023-04-15T12:54:56.132Z,2.03
2023-04-15T13:00:00.172Z,2.20
2023-04-15T13:05:03.267Z,1.90
2023-04-15T13:15:11.468Z,1.98
2023-04-15T13:20:15.482Z,1.80
2023-04-15T13:25:19.611Z,1.63
2023-04-15T13:30:22.539Z,1.90
2023-04-15T13:35:25.433Z,2.20
2023-04-15T13:40:28.479Z,3.03
2023-04-15T13:45:31.590Z,2.28
2023-04-15T13:50:34.154Z,1.98
2023-04-15T13:55:38.530Z,2.28
2023-04-15T14:00:41.262Z,2.53
2023-04-15T14:05:45.386Z,2.47
2023-04-15T14:15:53.950Z,2.53
2023-04-15T14:20:57.226Z,2.78
2023-04-15T14:25:59.863Z,2.67
2023-04-15T14:31:02.612Z,2.38
2023-04-15T14:36:06.677Z,2.90
2023-04-15T14:41:10.020Z,3.28
2023-04-15T14:46:33.579Z,2.75
2023-04-15T14:51:36.590Z,3.30
2023-04-15T14:56:41.418Z,3.45
2023-04-15T15:01:45.594Z,3.92
2023-04-15T15:06:49.235Z,2.80
2023-04-15T15:11:52.186Z,2.83
2023-04-15T15:16:56.379Z,3.15
2023-04-15T15:21:59.688Z,3.13
2023-04-15T15:27:03.057Z,2.13
2023-04-15T15:32:08.012Z,3.60
2023-04-15T15:37:10.917Z,2.80
2023-04-15T15:42:13.597Z,2.38
2023-04-15T15:47:17.107Z,2.22
2023-04-15T15:52:20.803Z,2.50
2023-04-15T15:57:23.568Z,2.70
2023-04-15T16:02:45.874Z,2.93
2023-04-15T16:07:49.736Z,2.33
2023-04-15T16:12:53.561Z,2.20
2023-04-15T16:17:56.795Z,2.00
2023-04-15T16:23:00.094Z,2.60
2023-04-15T16:28:11.408Z,2.60
2023-04-15T16:33:41.184Z,2.70
2023-04-15T16:38:48.727Z,2.47
2023-04-15T16:43:55.465Z,2.05
2023-04-15T16:48:58.676Z,2.42
2023-04-15T16:54:02.606Z,2.97
2023-04-15T16:59:05.590Z,2.67
2023-04-15T17:04:08.443Z,2.80
2023-04-15T17:09:11.360Z,3.20
2023-04-15T17:14:16.976Z,2.95
2023-04-15T17:19:19.555Z,2.40
2023-04-15T17:24:22.652Z,3.13
2023-04-15T17:29:26.228Z,3.40
2023-04-15T17:34:49.756Z,2.47
2023-04-15T17:39:52.269Z,3.22
2023-04-15T17:45:14.013Z,2.70
2023-04-15T17:50:16.711Z,2.58
2023-04-15T17:55:22.166Z,3.00
2023-04-15T18:00:25.476Z,2.70
2023-04-15T18:05:28.128Z,2.28
2023-04-15T18:10:32.999Z,2.78
2023-04-15T18:15:36.311Z,2.35
2023-04-15T18:20:38.871Z,2.90
2023-04-15T18:25:44.532Z,2.30
2023-04-15T18:30:48.690Z,2.35
2023-04-15T18:35:58.515Z,2.80
2023-04-15T18:41:01.396Z,2.97
2023-04-15T18:46:09.664Z,2.88
2023-04-15T18:51:13.808Z,3.25
2023-04-15T18:56:16.536Z,2.45
2023-04-15T19:01:19.423Z,3.10
2023-04-15T19:06:22.436Z,2.83
2023-04-15T19:11:44.200Z,3.13
2023-04-15T19:16:46.898Z,2.80
2023-04-15T19:21:50.373Z,3.85
2023-04-15T19:26:54.290Z,3.17
2023-04-15T19:31:58.611Z,3.57
2023-04-15T19:42:05.363Z,3.47
2023-04-15T19:47:13.882Z,2.90
2023-04-15T19:52:16.784Z,3.20
2023-04-15T19:57:19.573Z,3.83
2023-04-15T20:02:22.980Z,3.22
2023-04-15T20:07:27.318Z,3.20
2023-04-15T20:12:50.015Z,3.50
2023-04-15T20:17:53.805Z,3.60
2023-04-15T20:22:56.458Z,3.10
2023-04-15T20:28:19.515Z,4.30
2023-04-15T20:38:24.924Z,4.03
2023-04-15T20:43:27.458Z,3.40
2023-04-15T20:48:31.668Z,4.53
2023-04-15T20:53:35.324Z,3.20
2023-04-15T20:58:38.739Z,3.40
2023-04-15T21:03:42.243Z,3.93
2023-04-15T21:08:45.439Z,3.80
2023-04-15T21:13:48.294Z,4.63
2023-04-15T21:18:51.072Z,3.45
2023-04-15T21:23:54.312Z,4.55
2023-04-15T21:28:59.245Z,5.20
2023-04-15T21:34:01.903Z,4.60
2023-04-15T21:39:05.125Z,4.25
2023-04-15T21:44:07.895Z,4.57
2023-04-15T21:49:11.916Z,4.63
2023-04-15T21:54:16.724Z,5.30
2023-04-15T21:59:28.095Z,5.53
2023-04-15T22:04:31.201Z,5.93
2023-04-15T22:09:34.483Z,4.97
2023-04-15T22:14:37.293Z,5.40
2023-04-15T22:19:41.051Z,5.18
2023-04-15T22:24:46.237Z,6.75
2023-04-15T22:29:48.798Z,5.60
2023-04-15T22:34:52.431Z,7.78
2023-04-15T22:39:56.795Z,7.03
2023-04-15T22:45:00.057Z,7.60
2023-04-15T22:50:03.599Z,6.03
2023-04-15T22:55:07.165Z,7.25
2023-04-15T23:00:11.641Z,9.07
2023-04-15T23:05:14.214Z,7.72
2023-04-15T23:10:16.972Z,8.15
2023-04-15T23:15:21.054Z,9.43
2023-04-15T23:20:23.641Z,8.93
2023-04-15T23:25:26.672Z,8.48
2023-04-15T23:30:30.065Z,9.05
2023-04-15T23:35:32.611Z,8.55
2023-04-15T23:40:35.638Z,10.70
2023-04-15T23:45:38.260Z,11.13
2023-04-15T23:50:40.877Z,10.95
2023-04-15T23:55:43.521Z,11.57
